Allegany Spring, Virginia
Current Conditions -  °F | °C
As of 2:15 AM on Sunday 26 Oct 2014 (Local Time) from KBCB Reporting Station
Broken Clouds Broken Clouds  
Wind Chill: 57°   Ceiling: 2800
Heat Index: 57°   Visibility: 10mi
Dew Point: 54°   Wind: 8mph
Humidity: 88%   Direction: 270°W
Pressure: 29.89"   Gusts: NA
Location:  37.1336°N, 80.2545°W
Report Text: KBCB 260615Z AUTO 27007KT 210V300 10SM BKN028 BKN035 14/12 A2989 RMK AO2
Loading
Personal Weather Stations






























Interactive Weather Map
Tropical Storm Tracking
New forecast layout! Learn more

10-Day Weather Forecast

Advertisements
Track Severe Weather on mobile